Time;durP1;ratioP1;P1;durP2;ratioP2;P2;SDS_P1;SDS_P2;PMS_P1;PMS_P2;Temp;Humidity;BMP_temperature;BMP_pressure;BME280_temperature;BME280_humidity;BME280_pressure;Samples;Min_cycle;Max_cycle;Signal;HPM_P1;HPM_P2
2023/10/19 00:00:21;;;;;;;19.80;9.03;;;;;;;10.07;79.22;97182.88;5007681;28;20194;-70
2023/10/19 00:02:54;;;;;;;18.97;8.00;;;;;;;10.05;80.05;97187.28;5006582;28;20678;-70
2023/10/19 00:05:26;;;;;;;21.03;9.30;;;;;;;10.16;80.47;97187.72;5007466;28;20198;-71
2023/10/19 00:07:57;;;;;;;11.93;6.87;;;;;;;10.25;79.90;97188.16;5007427;28;20203;-71
2023/10/19 00:10:28;;;;;;;18.97;8.20;;;;;;;10.38;79.03;97178.13;5006771;28;20285;-76
2023/10/19 00:13:04;;;;;;;13.70;7.20;;;;;;;10.05;79.92;97182.94;5007585;28;20195;-74
2023/10/19 00:15:34;;;;;;;15.83;7.53;;;;;;;10.21;79.97;97180.59;5006350;28;20196;-75
2023/10/19 00:23:13;;;;;;;16.97;7.80;;;;;;;10.29;78.37;97171.59;5006995;28;20281;-70
2023/10/19 00:25:41;;;;;;;12.13;6.17;;;;;;;10.41;78.17;97172.81;5007202;28;20753;-75
2023/10/19 00:28:08;;;;;;;16.03;7.37;;;;;;;10.05;79.16;97158.81;5004886;28;20241;-75
2023/10/19 00:30:35;;;;;;;13.03;6.77;;;;;;;10.11;78.97;97143.06;5006215;28;20199;-77
2023/10/19 00:33:16;;;;;;;18.43;8.03;;;;;;;10.31;78.39;97161.16;5006080;28;20286;-73
2023/10/19 00:35:47;;;;;;;19.17;7.33;;;;;;;10.25;78.56;97161.44;5006534;28;20641;-76
2023/10/19 00:38:57;;;;;;;11.80;5.67;;;;;;;10.35;78.00;97152.34;5006940;28;20282;-70
2023/10/19 00:43:49;;;;;;;20.03;8.53;;;;;;;10.21;77.45;97155.56;5007365;28;20233;-71
2023/10/19 00:48:56;;;;;;;12.67;6.40;;;;;;;9.69;79.02;97151.66;5007253;28;20200;-73
2023/10/19 00:53:59;;;;;;;12.47;7.03;;;;;;;9.11;82.50;97147.09;5005029;28;20207;-73
2023/10/19 00:56:30;;;;;;;14.47;7.00;;;;;;;9.19;83.15;97147.63;5007491;28;20194;-73
2023/10/19 00:59:14;;;;;;;13.10;6.90;;;;;;;9.17;82.93;97130.53;5005892;28;20253;-71
2023/10/19 01:01:45;;;;;;;14.50;8.10;;;;;;;9.19;82.99;97139.88;5006931;28;20780;-76
2023/10/19 01:04:32;;;;;;;10.57;6.47;;;;;;;9.37;82.44;97146.94;5006720;28;20534;-73
2023/10/19 01:07:22;;;;;;;19.60;8.67;;;;;;;9.64;81.67;97147.59;5004815;28;20185;-70
2023/10/19 01:09:52;;;;;;;18.70;8.13;;;;;;;9.57;80.53;97130.63;5007023;28;20205;-70
2023/10/19 01:12:25;;;;;;;16.07;7.30;;;;;;;9.19;81.84;97139.06;5006015;28;20202;-72
2023/10/19 01:15:13;;;;;;;17.47;7.43;;;;;;;9.15;82.21;97132.34;5006708;28;20239;-70
2023/10/19 01:17:45;;;;;;;15.70;6.50;;;;;;;9.15;82.61;97127.16;5007017;28;20196;-74
2023/10/19 01:23:06;;;;;;;16.70;8.03;;;;;;;9.14;83.65;97131.47;5007033;28;20249;-69
2023/10/19 01:28:18;;;;;;;18.27;7.80;;;;;;;9.40;82.86;97126.13;5006390;28;20245;-70
2023/10/19 01:30:46;;;;;;;14.37;7.77;;;;;;;9.42;82.50;97126.91;5005528;28;20199;-70
2023/10/19 01:33:15;;;;;;;16.63;7.07;;;;;;;9.51;82.29;97121.38;5005883;28;20230;-71
2023/10/19 01:38:33;;;;;;;12.37;5.97;;;;;;;9.78;81.83;97120.25;5008336;28;20799;-70
2023/10/19 01:41:19;;;;;;;14.40;6.73;;;;;;;9.90;80.19;97128.41;5008734;28;20227;-70
2023/10/19 01:43:48;;;;;;;16.60;6.27;;;;;;;10.03;80.02;97125.25;5010456;28;20191;-70
2023/10/19 01:46:29;;;;;;;17.70;7.90;;;;;;;9.89;79.07;97101.72;5007724;28;20204;-71
2023/10/19 01:48:57;;;;;;;15.27;7.13;;;;;;;10.01;78.63;97133.97;5010375;28;20202;-71
2023/10/19 01:51:28;;;;;;;12.87;6.17;;;;;;;9.84;78.51;97088.13;5008977;28;20188;-70
2023/10/19 01:53:56;;;;;;;15.23;7.47;;;;;;;10.17;78.06;97137.63;5009752;28;20187;-68
2023/10/19 01:56:24;;;;;;;10.13;5.90;;;;;;;10.26;77.73;97121.72;5009892;28;20196;-69
2023/10/19 01:58:54;;;;;;;15.60;7.53;;;;;;;10.17;77.41;97132.44;5007791;28;20245;-69
2023/10/19 02:03:58;;;;;;;13.60;6.97;;;;;;;9.92;78.85;97127.44;5008611;28;20200;-69
2023/10/19 02:06:34;;;;;;;17.77;7.67;;;;;;;9.90;78.43;97124.06;5008577;28;20203;-69
2023/10/19 02:09:26;;;;;;;13.07;6.77;;;;;;;9.80;78.59;97097.75;5008806;28;20205;-68
2023/10/19 02:11:58;;;;;;;13.17;6.93;;;;;;;10.03;78.47;97104.56;5007485;28;20360;-69
2023/10/19 02:14:33;;;;;;;16.20;7.23;;;;;;;10.12;78.30;97119.69;5008392;28;20232;-69
2023/10/19 02:17:04;;;;;;;15.70;7.87;;;;;;;9.84;79.22;97120.00;5008201;28;20750;-69
2023/10/19 02:19:32;;;;;;;15.50;7.67;;;;;;;9.81;79.49;97114.94;5008530;28;20207;-69
2023/10/19 02:22:08;;;;;;;14.23;7.13;;;;;;;9.77;79.85;97102.19;5008656;28;20326;-69
2023/10/19 02:24:36;;;;;;;19.03;8.43;;;;;;;9.88;79.64;97118.13;5008788;28;20204;-70
2023/10/19 02:27:04;;;;;;;11.93;6.40;;;;;;;9.88;79.88;97114.69;5009357;28;20195;-68
2023/10/19 02:29:36;;;;;;;12.33;6.57;;;;;;;10.03;78.84;97120.06;5006826;28;20192;-69
2023/10/19 02:32:05;;;;;;;16.53;8.00;;;;;;;10.00;78.74;97116.75;5009532;28;20195;-69
2023/10/19 02:34:34;;;;;;;14.07;7.37;;;;;;;10.09;78.25;97121.56;5008085;28;20192;-71
2023/10/19 02:37:02;;;;;;;16.73;6.97;;;;;;;9.89;78.54;97118.97;5009400;28;20199;-69
2023/10/19 02:39:29;;;;;;;12.07;5.77;;;;;;;9.69;79.70;97115.44;5007302;28;20741;-69
2023/10/19 02:41:56;;;;;;;17.67;7.63;;;;;;;9.79;80.12;97115.91;5008448;28;20313;-69
2023/10/19 02:44:23;;;;;;;12.57;6.87;;;;;;;9.77;80.11;97115.13;5009394;28;20223;-69
2023/10/19 02:47:05;;;;;;;15.27;7.43;;;;;;;9.93;79.27;97117.94;5007890;28;20192;-69
2023/10/19 02:49:38;;;;;;;16.57;7.47;;;;;;;9.93;78.87;97125.69;5008918;28;20198;-69
2023/10/19 02:52:05;;;;;;;17.23;8.17;;;;;;;9.96;78.26;97121.22;5007765;28;20208;-69
2023/10/19 02:54:33;;;;;;;15.23;7.37;;;;;;;10.03;78.55;97130.44;5008802;28;20713;-69
2023/10/19 02:57:06;;;;;;;18.47;11.93;;;;;;;9.99;78.58;97115.09;5008671;28;20266;-72
2023/10/19 02:59:35;;;;;;;15.13;8.30;;;;;;;9.97;78.53;97122.06;5006559;28;20192;-75
2023/10/19 03:02:17;;;;;;;13.87;6.93;;;;;;;9.94;78.58;97117.88;5008777;28;20223;-72
2023/10/19 03:04:45;;;;;;;14.23;7.37;;;;;;;9.71;78.82;97108.47;5022501;28;20737;-73
2023/10/19 03:07:14;;;;;;;33.10;27.47;;;;;;;9.42;80.19;97115.72;5007441;28;20196;-76
2023/10/19 03:09:54;;;;;;;17.20;7.87;;;;;;;9.30;81.10;97121.38;5006549;28;20207;-75
2023/10/19 03:12:25;;;;;;;20.67;9.37;;;;;;;9.35;81.38;97115.16;5007754;28;20195;-73
2023/10/19 03:14:52;;;;;;;21.53;9.37;;;;;;;9.31;80.74;97115.31;5008491;28;20242;-72
2023/10/19 03:17:21;;;;;;;18.53;8.77;;;;;;;9.22;82.27;97123.41;5003297;28;20231;-69
2023/10/19 03:19:48;;;;;;;16.40;7.97;;;;;;;9.32;82.37;97115.25;5008527;28;20206;-72
2023/10/19 03:22:17;;;;;;;19.53;9.53;;;;;;;9.37;81.89;97115.94;5003671;28;20238;-69
2023/10/19 03:24:44;;;;;;;24.60;9.23;;;;;;;9.30;82.25;97117.06;5008556;28;20234;-72
2023/10/19 03:27:16;;;;;;;13.80;7.87;;;;;;;9.20;82.50;97097.66;5007876;28;20585;-74
2023/10/19 03:29:46;;;;;;;20.33;8.40;;;;;;;9.07;83.59;97121.44;5007525;28;20206;-75
2023/10/19 03:32:15;;;;;;;17.40;11.13;;;;;;;9.17;83.08;97113.25;5008457;28;20205;-74
2023/10/19 03:34:47;;;;;;;23.77;12.23;;;;;;;9.26;82.91;97109.47;5006951;28;20285;-72
2023/10/19 03:37:17;;;;;;;14.30;7.57;;;;;;;9.20;83.37;97114.88;5008572;28;20283;-75
2023/10/19 03:39:46;;;;;;;15.33;8.00;;;;;;;9.04;83.80;97114.66;5007173;28;20257;-71
2023/10/19 03:42:14;;;;;;;17.93;11.97;;;;;;;9.10;83.89;97118.75;5006593;28;20231;-73
2023/10/19 03:44:53;;;;;;;14.53;10.77;;;;;;;9.11;83.34;97116.09;5000022;28;20282;-73
2023/10/19 03:47:25;;;;;;;21.47;9.23;;;;;;;8.98;84.04;97118.28;4997616;28;20199;-75
2023/10/19 03:49:59;;;;;;;18.03;8.23;;;;;;;9.18;84.08;97107.22;4998873;28;20660;-78
2023/10/19 03:52:31;;;;;;;20.67;9.20;;;;;;;9.32;83.26;97104.91;5010647;28;20221;-68
2023/10/19 03:55:01;;;;;;;24.20;8.90;;;;;;;9.31;83.30;97113.59;4998746;28;20190;-74
2023/10/19 03:57:29;;;;;;;16.23;8.13;;;;;;;9.48;82.98;97094.81;4996861;28;20706;-71
2023/10/19 03:59:57;;;;;;;19.77;8.70;;;;;;;9.69;81.82;97105.13;4995360;28;20241;-70
2023/10/19 04:02:27;;;;;;;13.17;7.17;;;;;;;9.49;82.09;97102.50;4992302;28;20590;-71
2023/10/19 04:04:57;;;;;;;16.47;8.20;;;;;;;9.46;82.39;97092.28;4986996;28;20671;-71
2023/10/19 04:07:30;;;;;;;16.53;7.77;;;;;;;9.38;82.84;97098.66;4988257;28;20734;-70
2023/10/19 04:12:38;;;;;;;21.17;9.67;;;;;;;9.48;82.03;97094.81;4987792;28;20200;-71
2023/10/19 04:15:12;;;;;;;15.17;7.47;;;;;;;9.40;81.82;97102.00;4987658;28;20234;-69
2023/10/19 04:17:40;;;;;;;15.30;8.47;;;;;;;9.36;82.32;97088.38;4986902;28;20211;-69
2023/10/19 04:22:50;;;;;;;15.82;8.52;;;;;;;8.75;82.42;97009.06;4985853;28;20448;-68
2023/10/19 04:25:18;;;;;;;19.40;9.17;;;;;;;9.31;82.35;97095.50;4987982;28;20207;-67
2023/10/19 04:27:48;;;;;;;20.63;9.17;;;;;;;9.47;82.10;97111.22;4986954;28;20200;-70
2023/10/19 04:30:16;;;;;;;18.83;8.80;;;;;;;9.44;81.72;97096.66;4987067;28;20252;-67
2023/10/19 04:32:45;;;;;;;17.17;7.80;;;;;;;9.67;81.51;97100.91;4987588;28;20295;-66
2023/10/19 04:35:14;;;;;;;25.27;10.63;;;;;;;9.70;80.61;97086.13;4986343;28;20211;-67
2023/10/19 04:37:42;;;;;;;17.77;8.70;;;;;;;9.66;80.53;97084.56;4988217;28;20200;-71
2023/10/19 04:40:10;;;;;;;26.80;10.73;;;;;;;9.84;80.21;97104.50;4986224;28;20200;-67
2023/10/19 04:42:38;;;;;;;19.70;9.30;;;;;;;9.75;80.22;97104.00;4987131;28;20307;-68
2023/10/19 04:45:06;;;;;;;17.67;9.13;;;;;;;9.79;80.34;97100.38;4986337;28;20219;-68
2023/10/19 04:47:35;;;;;;;17.73;9.00;;;;;;;9.85;79.44;97100.13;4989783;28;20196;-66
2023/10/19 04:50:04;;;;;;;13.53;7.47;;;;;;;9.54;80.38;97097.97;4998213;28;20727;-68
2023/10/19 04:52:32;;;;;;;17.57;9.03;;;;;;;9.51;81.05;97100.69;5005658;28;20765;-69
2023/10/19 04:55:01;;;;;;;22.47;10.43;;;;;;;9.64;81.01;97101.84;5007317;28;20298;-71
2023/10/19 04:57:31;;;;;;;28.40;11.10;;;;;;;9.40;80.73;97087.34;5006276;28;20207;-71
2023/10/19 04:59:58;;;;;;;35.43;12.60;;;;;;;9.58;79.95;97112.47;5007323;28;20210;-67
2023/10/19 05:02:25;;;;;;;28.10;9.83;;;;;;;9.68;79.68;97102.59;5006352;28;20233;-68
2023/10/19 05:04:52;;;;;;;39.03;9.80;;;;;;;9.52;80.40;97110.13;5006548;28;20282;-68
2023/10/19 05:07:20;;;;;;;28.40;8.40;;;;;;;9.08;80.65;97056.81;5006862;28;20230;-70
2023/10/19 05:09:47;;;;;;;27.57;10.73;;;;;;;9.32;81.74;97097.16;5005695;28;20203;-69
2023/10/19 05:12:14;;;;;;;29.77;10.23;;;;;;;9.54;80.86;97104.91;5007501;28;20702;-68
2023/10/19 05:14:43;;;;;;;28.40;10.17;;;;;;;9.57;80.65;97104.78;5009030;28;20235;-68
2023/10/19 05:17:10;;;;;;;29.70;10.70;;;;;;;9.39;81.14;97101.19;5010426;28;20226;-67
2023/10/19 05:19:39;;;;;;;15.57;8.53;;;;;;;9.48;81.49;97116.31;5009511;28;20293;-67
2023/10/19 05:22:09;;;;;;;20.20;8.63;;;;;;;9.57;81.27;97118.53;5009876;28;20329;-68
2023/10/19 05:24:36;;;;;;;15.23;7.47;;;;;;;9.56;80.27;97109.09;5010437;28;20203;-67
2023/10/19 05:27:04;;;;;;;18.57;9.10;;;;;;;9.60;80.98;97122.75;5009137;28;20257;-69
2023/10/19 05:29:33;;;;;;;18.97;9.10;;;;;;;9.53;80.73;97108.38;5010536;28;20286;-70
2023/10/19 05:32:00;;;;;;;23.97;9.43;;;;;;;9.45;80.89;97126.78;5008850;28;20207;-67
2023/10/19 05:34:29;;;;;;;20.27;9.20;;;;;;;9.27;82.24;97116.34;5010505;28;20200;-68
2023/10/19 05:37:01;;;;;;;17.03;8.83;;;;;;;9.28;81.99;97118.88;5009244;28;20199;-68
2023/10/19 05:39:31;;;;;;;21.10;9.47;;;;;;;9.42;81.48;97124.31;5009635;28;20286;-70
2023/10/19 05:42:01;;;;;;;15.70;8.50;;;;;;;9.54;81.24;97131.59;5010028;28;20287;-69
2023/10/19 05:44:30;;;;;;;22.67;10.17;;;;;;;9.27;82.01;97122.38;5009008;28;20242;-70
2023/10/19 05:46:58;;;;;;;14.93;8.20;;;;;;;9.42;81.85;97131.22;5009678;28;20713;-68
2023/10/19 05:49:26;;;;;;;23.70;10.60;;;;;;;9.61;81.41;97114.94;5008505;28;20199;-68
2023/10/19 05:51:53;;;;;;;19.53;9.17;;;;;;;9.63;81.35;97126.06;5008555;28;20206;-69
2023/10/19 05:54:23;;;;;;;25.73;9.63;;;;;;;9.70;80.87;97129.22;5008796;28;20227;-69
2023/10/19 05:56:51;;;;;;;22.07;9.93;;;;;;;9.52;81.43;97106.72;5008906;28;20585;-70
2023/10/19 05:59:18;;;;;;;17.70;8.33;;;;;;;9.63;81.43;97133.81;5009074;28;20211;-68
2023/10/19 06:01:46;;;;;;;22.07;10.40;;;;;;;9.62;81.50;97131.28;5008037;28;20210;-68
2023/10/19 06:04:14;;;;;;;24.07;10.97;;;;;;;9.52;81.63;97115.28;5009699;28;20206;-69
2023/10/19 06:06:46;;;;;;;18.97;9.83;;;;;;;9.83;80.55;97128.66;5006886;28;20202;-72
2023/10/19 06:09:15;;;;;;;31.33;13.27;;;;;;;10.07;80.33;97137.16;5009678;28;20268;-70
2023/10/19 06:11:43;;;;;;;21.00;9.97;;;;;;;9.91;79.43;97097.31;5008441;28;20203;-71
2023/10/19 06:14:10;;;;;;;23.47;10.87;;;;;;;9.71;79.72;97061.94;5008601;28;20325;-68
2023/10/19 06:16:37;;;;;;;19.30;9.57;;;;;;;10.08;79.47;97143.13;5009479;28;20283;-69
2023/10/19 06:19:05;;;;;;;19.50;9.87;;;;;;;10.24;79.45;97129.53;5008020;28;20199;-68
2023/10/19 06:21:33;;;;;;;19.33;10.13;;;;;;;10.47;78.45;97131.97;5009195;28;20195;-70
2023/10/19 06:24:02;;;;;;;21.87;10.50;;;;;;;10.63;77.99;97140.72;5007341;28;20770;-71
2023/10/19 06:26:30;;;;;;;22.83;10.80;;;;;;;10.76;77.48;97135.84;5009199;28;20746;-69
2023/10/19 06:28:59;;;;;;;17.33;9.37;;;;;;;10.99;77.08;97138.25;5007799;28;20671;-69
2023/10/19 06:31:28;;;;;;;21.70;10.27;;;;;;;11.03;76.11;97142.38;5008255;28;20655;-69
2023/10/19 06:33:57;;;;;;;17.50;8.47;;;;;;;10.69;76.85;97126.69;5008797;28;20270;-71
2023/10/19 06:36:25;;;;;;;24.47;12.00;;;;;;;10.71;78.08;97136.97;5007372;28;20235;-71
2023/10/19 06:38:54;;;;;;;24.03;11.23;;;;;;;10.68;77.62;97135.34;5008579;28;20208;-73
2023/10/19 06:41:22;;;;;;;18.60;9.97;;;;;;;10.92;78.01;97139.41;5007389;28;20195;-70
2023/10/19 06:43:50;;;;;;;22.83;12.07;;;;;;;11.12;76.89;97154.06;5008485;28;20316;-71
2023/10/19 06:46:17;;;;;;;14.63;8.47;;;;;;;11.15;76.64;97138.38;5007633;28;20282;-71
2023/10/19 06:48:45;;;;;;;20.63;10.50;;;;;;;10.94;77.14;97124.66;5008155;28;20584;-67
2023/10/19 06:51:12;;;;;;;12.90;8.20;;;;;;;11.04;76.97;97138.03;5008368;28;20369;-70
2023/10/19 06:53:39;;;;;;;19.63;10.27;;;;;;;11.16;76.89;97145.25;5007235;28;20197;-73
2023/10/19 06:56:07;;;;;;;20.50;10.40;;;;;;;11.33;76.84;97134.94;5006759;28;20193;-71
2023/10/19 06:58:36;;;;;;;18.77;10.10;;;;;;;11.43;77.06;97136.19;5006756;28;20200;-69
2023/10/19 07:01:08;;;;;;;19.53;10.17;;;;;;;11.63;75.86;97143.00;5008064;28;20214;-67
2023/10/19 07:03:36;;;;;;;19.27;9.40;;;;;;;11.82;75.74;97138.63;5005594;28;20263;-74
2023/10/19 07:06:06;;;;;;;28.47;10.60;;;;;;;12.05;74.52;97138.34;5007567;28;20213;-70
2023/10/19 07:08:41;;;;;;;15.73;9.03;;;;;;;12.04;74.06;97137.50;5007862;28;20297;-70
2023/10/19 07:11:09;;;;;;;19.13;9.70;;;;;;;12.04;74.55;97134.91;5006760;28;20209;-69
2023/10/19 07:13:36;;;;;;;21.07;10.73;;;;;;;12.33;73.67;97127.38;5007791;28;20248;-71
2023/10/19 07:16:04;;;;;;;21.77;10.60;;;;;;;12.57;73.39;97133.94;5006210;28;20196;-69
2023/10/19 07:18:31;;;;;;;20.70;10.53;;;;;;;12.92;72.50;97127.72;5007596;28;20612;-72
2023/10/19 07:21:05;;;;;;;21.40;10.23;;;;;;;13.08;72.22;97131.19;5006798;28;20232;-74
2023/10/19 07:23:32;;;;;;;16.30;9.30;;;;;;;13.28;72.07;97130.94;5007041;28;20842;-70
2023/10/19 07:26:00;;;;;;;21.33;9.73;;;;;;;13.21;71.76;97128.75;5007808;28;20595;-69
2023/10/19 07:28:27;;;;;;;19.87;10.00;;;;;;;13.37;71.42;97124.41;5006021;28;20192;-71
2023/10/19 07:30:55;;;;;;;20.63;8.90;;;;;;;13.29;71.02;97118.78;5007763;28;20266;-68
2023/10/19 07:33:24;;;;;;;18.07;9.67;;;;;;;13.30;70.88;97120.44;5005988;28;20301;-71
2023/10/19 07:35:54;;;;;;;19.33;9.23;;;;;;;12.93;72.24;97121.56;5006627;28;20222;-71
2023/10/19 07:38:22;;;;;;;21.13;8.60;;;;;;;13.14;72.13;97117.00;5005172;28;20198;-69
2023/10/19 07:40:53;;;;;;;25.43;9.20;;;;;;;13.36;71.87;97120.94;5006887;28;20723;-68
2023/10/19 07:43:21;;;;;;;20.17;9.13;;;;;;;13.77;70.11;97123.81;5007261;28;20236;-71
2023/10/19 07:45:49;;;;;;;19.93;8.40;;;;;;;13.94;69.32;97105.47;5006437;28;20211;-68
2023/10/19 07:48:17;;;;;;;20.47;8.43;;;;;;;14.03;68.96;97123.19;5007035;28;20497;-71
2023/10/19 07:50:44;;;;;;;19.37;9.70;;;;;;;14.19;68.83;97103.13;5005483;28;20201;-70
2023/10/19 07:53:12;;;;;;;24.97;10.53;;;;;;;14.35;68.71;97114.34;5007178;28;20708;-72
2023/10/19 07:55:39;;;;;;;18.20;9.70;;;;;;;14.41;67.78;97121.78;4995582;28;20821;-70
2023/10/19 07:58:07;;;;;;;21.23;10.70;;;;;;;14.41;68.46;97115.72;4997905;28;20201;-70
2023/10/19 08:00:35;;;;;;;22.57;10.87;;;;;;;14.49;67.80;97106.53;4990925;28;20210;-71
2023/10/19 08:03:04;;;;;;;21.90;11.20;;;;;;;14.56;67.43;97107.84;4985122;28;20259;-69
2023/10/19 08:05:33;;;;;;;26.83;12.10;;;;;;;14.31;67.50;97063.34;4986801;28;20208;-69
2023/10/19 08:08:03;;;;;;;23.40;11.33;;;;;;;14.54;68.22;97114.91;4985246;28;20215;-71
2023/10/19 08:10:34;;;;;;;27.63;14.10;;;;;;;14.59;67.93;97098.97;4984878;28;20231;-70
2023/10/19 08:13:01;;;;;;;31.53;12.60;;;;;;;14.79;68.09;97108.22;4985329;28;20242;-68
2023/10/19 08:15:30;;;;;;;22.67;11.33;;;;;;;14.68;68.21;97069.75;4986538;28;20307;-71
2023/10/19 08:17:58;;;;;;;26.53;13.10;;;;;;;14.89;68.47;97106.72;4986411;28;20593;-71
2023/10/19 08:20:30;;;;;;;27.57;12.90;;;;;;;14.77;67.47;97097.88;4985350;28;20689;-69
2023/10/19 08:23:01;;;;;;;19.90;10.87;;;;;;;14.59;68.65;97106.78;4987336;28;20243;-74
2023/10/19 08:25:30;;;;;;;28.93;14.53;;;;;;;14.86;67.75;97109.53;4984582;28;20210;-70
2023/10/19 08:28:17;;;;;;;23.50;12.07;;;;;;;14.71;68.88;97103.47;4987219;28;20193;-67
2023/10/19 08:30:56;;;;;;;20.10;12.17;;;;;;;14.77;68.24;97099.66;4986797;28;20199;-67
2023/10/19 08:33:25;;;;;;;23.63;12.23;;;;;;;14.78;68.25;97109.13;4985798;28;20194;-68
2023/10/19 08:35:54;;;;;;;23.07;12.97;;;;;;;14.69;68.41;97098.31;4987010;28;20606;-68
2023/10/19 08:38:23;;;;;;;33.00;14.77;;;;;;;15.08;67.48;97102.03;4985395;28;20204;-67
2023/10/19 08:40:50;;;;;;;21.10;12.60;;;;;;;15.10;67.15;97102.78;4985526;28;20224;-69
2023/10/19 08:43:18;;;;;;;25.90;12.70;;;;;;;14.90;67.71;97084.94;4985638;28;20305;-66
2023/10/19 08:45:45;;;;;;;29.73;12.47;;;;;;;14.85;67.30;97073.94;4989440;28;20213;-70
2023/10/19 08:48:14;;;;;;;22.97;10.93;;;;;;;15.06;66.96;97070.84;5009054;28;20191;-69
2023/10/19 08:50:41;;;;;;;22.70;11.90;;;;;;;15.01;66.43;97066.81;5009124;28;20223;-72
2023/10/19 08:53:09;;;;;;;17.50;9.20;;;;;;;15.28;64.69;97081.56;5010160;28;20205;-68
2023/10/19 08:55:36;;;;;;;23.57;10.53;;;;;;;15.11;64.19;97073.97;5008971;28;20920;-77
2023/10/19 08:58:16;;;;;;;18.53;9.20;;;;;;;14.94;63.96;97070.75;5010902;28;20199;-68
2023/10/19 09:00:51;;;;;;;15.27;8.87;;;;;;;15.28;63.69;97072.91;5009549;28;20605;-72
2023/10/19 09:03:19;;;;;;;26.37;13.00;;;;;;;15.48;63.21;97069.88;5007942;28;20223;-67
2023/10/19 09:05:47;;;;;;;16.30;9.33;;;;;;;15.48;63.16;97054.22;5008714;28;20199;-70
2023/10/19 09:08:17;;;;;;;21.83;9.53;;;;;;;15.43;62.83;97014.56;5009006;28;20195;-72
2023/10/19 09:10:45;;;;;;;21.23;10.77;;;;;;;15.90;62.03;97058.41;5009827;28;20647;-69
2023/10/19 09:13:15;;;;;;;23.07;10.73;;;;;;;15.91;61.80;97060.91;5008151;28;20247;-73
2023/10/19 09:15:43;;;;;;;24.63;11.30;;;;;;;16.10;61.57;97056.13;5008793;28;20204;-74
2023/10/19 09:18:18;;;;;;;25.03;10.87;;;;;;;16.15;61.70;97063.66;5008019;28;20637;-74
2023/10/19 09:20:54;;;;;;;17.10;9.63;;;;;;;16.00;61.41;97062.91;5008771;28;20265;-73
2023/10/19 09:23:28;;;;;;;22.00;11.17;;;;;;;15.96;61.63;97056.22;5009620;28;20326;-74
2023/10/19 09:25:57;;;;;;;26.20;11.73;;;;;;;15.81;62.26;97054.63;5008489;28;20597;-69
2023/10/19 09:28:24;;;;;;;28.07;12.83;;;;;;;16.08;61.98;97063.22;5009688;28;20184;-68
2023/10/19 09:30:53;;;;;;;26.17;12.27;;;;;;;16.17;61.86;97052.19;5006871;28;20187;-67
2023/10/19 09:33:24;;;;;;;21.33;11.27;;;;;;;16.34;61.03;97042.34;5009463;28;20224;-69
2023/10/19 09:35:56;;;;;;;19.43;9.80;;;;;;;16.09;62.30;97033.53;5009114;28;20203;-68
2023/10/19 09:38:24;;;;;;;17.50;9.30;;;;;;;15.99;62.02;97013.41;5008702;28;20259;-70
2023/10/19 09:40:56;;;;;;;17.97;9.63;;;;;;;16.28;61.83;97027.91;5009592;28;20212;-70
2023/10/19 09:43:33;;;;;;;21.00;10.67;;;;;;;16.43;61.03;97016.41;5008128;28;20214;-70
2023/10/19 09:46:05;;;;;;;26.40;11.60;;;;;;;16.45;61.64;97024.97;5007833;28;20238;-68
2023/10/19 09:48:45;;;;;;;19.80;9.47;;;;;;;16.41;61.53;97020.91;5008485;28;20751;-68
2023/10/19 09:51:13;;;;;;;29.00;12.80;;;;;;;16.68;60.64;97015.56;5007916;28;20767;-68
2023/10/19 09:53:48;;;;;;;19.67;9.93;;;;;;;16.74;60.31;97009.88;5009219;28;20199;-73
2023/10/19 09:56:25;;;;;;;20.67;9.40;;;;;;;16.70;60.16;96966.59;5006532;28;20611;-74
2023/10/19 09:58:57;;;;;;;21.43;10.03;;;;;;;16.89;59.72;97014.88;5008710;28;20208;-68
2023/10/19 10:01:26;;;;;;;25.13;9.97;;;;;;;16.29;60.67;96988.63;5007682;28;20697;-68
2023/10/19 10:03:53;;;;;;;19.03;8.37;;;;;;;16.47;60.36;96983.03;5008460;28;20233;-71
2023/10/19 10:06:50;;;;;;;15.13;8.50;;;;;;;16.63;60.95;97000.19;5008963;28;20704;-69
2023/10/19 10:09:23;;;;;;;18.83;8.90;;;;;;;16.63;60.31;96996.75;5007477;28;20617;-69
2023/10/19 10:11:52;;;;;;;22.27;10.33;;;;;;;16.77;60.09;96999.22;5008829;28;20216;-68
2023/10/19 10:14:25;;;;;;;19.27;8.97;;;;;;;16.73;60.20;96990.75;5005976;28;20235;-70
2023/10/19 10:17:02;;;;;;;18.07;9.60;;;;;;;16.59;61.02;96979.63;5009108;28;20276;-69
2023/10/19 10:19:29;;;;;;;15.97;7.77;;;;;;;16.89;60.06;96988.72;5007828;28;20203;-74
2023/10/19 10:22:22;;;;;;;18.70;8.73;;;;;;;16.91;59.79;96980.75;5007612;28;20203;-70
2023/10/19 10:24:58;;;;;;;22.30;10.30;;;;;;;16.95;59.77;96979.59;5008411;28;20702;-70
2023/10/19 10:27:25;;;;;;;19.33;8.33;;;;;;;16.95;59.34;96950.81;5007770;28;20205;-74
2023/10/19 10:29:58;;;;;;;26.73;11.20;;;;;;;16.90;59.53;96964.22;5008479;28;20336;-73
2023/10/19 10:32:56;;;;;;;19.80;8.27;;;;;;;16.83;60.00;96962.16;5008666;28;20183;-68
2023/10/19 10:35:38;;;;;;;27.17;10.53;;;;;;;16.91;60.04;96962.44;5005823;28;20204;-68
2023/10/19 10:38:11;;;;;;;19.53;9.40;;;;;;;16.94;59.39;96929.03;5008684;28;20223;-67
2023/10/19 10:40:47;;;;;;;17.17;8.13;;;;;;;17.02;59.47;96946.81;5007538;28;20227;-71
2023/10/19 10:43:17;;;;;;;19.83;8.97;;;;;;;16.94;59.37;96936.91;5007297;28;20200;-68
2023/10/19 10:45:45;;;;;;;14.63;7.37;;;;;;;16.99;58.93;96953.09;5008478;28;20299;-71
2023/10/19 10:48:16;;;;;;;17.50;8.17;;;;;;;17.02;58.82;96937.16;5006745;28;20207;-67
2023/10/19 10:50:45;;;;;;;17.20;8.07;;;;;;;17.21;58.64;96934.03;5008450;28;20196;-72
2023/10/19 10:53:17;;;;;;;19.00;8.63;;;;;;;17.20;58.94;96928.91;5006920;28;20774;-66
2023/10/19 10:55:44;;;;;;;18.10;8.93;;;;;;;17.32;58.67;96935.88;5008430;28;20228;-69
2023/10/19 10:58:16;;;;;;;17.83;7.77;;;;;;;17.33;58.34;96925.28;5006297;28;20206;-71
2023/10/19 11:00:44;;;;;;;21.90;8.93;;;;;;;17.33;58.16;96930.50;5007057;28;20698;-73
2023/10/19 11:03:11;;;;;;;20.73;8.67;;;;;;;17.30;58.49;96924.66;5007807;28;20224;-67
2023/10/19 11:05:38;;;;;;;24.37;10.50;;;;;;;17.36;58.01;96927.69;5006316;28;20195;-69
2023/10/19 11:08:13;;;;;;;23.67;10.20;;;;;;;17.43;57.64;96926.28;5007401;28;20195;-69
2023/10/19 11:10:46;;;;;;;19.57;9.40;;;;;;;17.60;57.20;96923.25;5006119;28;20208;-68
2023/10/19 11:13:16;;;;;;;21.87;9.57;;;;;;;17.66;57.14;96921.97;5006877;28;20609;-70
2023/10/19 11:15:50;;;;;;;21.77;8.80;;;;;;;17.72;56.65;96909.22;5007231;28;20767;-67
2023/10/19 11:18:43;;;;;;;21.30;8.60;;;;;;;18.06;56.07;96909.25;5006311;28;20979;-73
2023/10/19 11:21:11;;;;;;;26.40;9.43;;;;;;;18.03;55.91;96912.13;5006754;28;20205;-69
2023/10/19 11:23:40;;;;;;;18.87;8.07;;;;;;;18.17;55.41;96902.22;5006305;28;20614;-67
2023/10/19 11:26:09;;;;;;;18.47;7.50;;;;;;;18.14;55.45;96875.41;5007770;28;20704;-67
2023/10/19 11:28:42;;;;;;;21.40;8.70;;;;;;;18.48;54.46;96895.44;5007283;28;20281;-67
2023/10/19 11:31:11;;;;;;;22.57;9.80;;;;;;;18.40;54.70;96889.94;5006467;28;20197;-68
2023/10/19 11:33:39;;;;;;;22.23;9.07;;;;;;;18.25;55.15;96889.34;5007188;28;20245;-67
2023/10/19 11:36:06;;;;;;;22.83;10.70;;;;;;;18.11;55.80;96891.38;5005711;28;20271;-69
2023/10/19 11:38:33;;;;;;;15.07;7.57;;;;;;;18.33;55.32;96880.88;5022729;28;20296;-68
2023/10/19 11:41:00;;;;;;;17.77;8.07;;;;;;;18.25;54.96;96862.31;5006427;28;20222;-69
2023/10/19 11:43:27;;;;;;;16.73;8.10;;;;;;;18.25;55.28;96870.16;5007213;28;20237;-67
2023/10/19 11:45:54;;;;;;;15.20;7.47;;;;;;;18.38;54.53;96870.88;5006678;28;20242;-69
2023/10/19 11:48:22;;;;;;;19.73;8.50;;;;;;;18.17;55.06;96844.56;5005177;28;20206;-69
2023/10/19 11:50:49;;;;;;;20.30;9.53;;;;;;;18.28;54.49;96857.63;5007390;28;20193;-75
2023/10/19 11:53:16;;;;;;;23.60;8.23;;;;;;;18.23;54.80;96856.34;5005754;28;20190;-72
2023/10/19 11:55:43;;;;;;;21.40;8.90;;;;;;;18.24;55.23;96860.63;5006985;28;20214;-73
2023/10/19 11:58:13;;;;;;;17.77;8.03;;;;;;;18.11;54.84;96850.28;5005887;28;20731;-76
2023/10/19 12:00:43;;;;;;;14.87;7.53;;;;;;;18.03;55.42;96851.84;5007390;28;20269;-68
2023/10/19 12:03:10;;;;;;;21.33;8.63;;;;;;;17.88;55.30;96836.38;5006011;28;20248;-67
2023/10/19 12:05:38;;;;;;;20.70;8.63;;;;;;;18.05;55.15;96839.47;5006544;28;20271;-71
2023/10/19 12:08:06;;;;;;;12.97;6.27;;;;;;;18.30;54.42;96849.69;5007277;28;20205;-75
2023/10/19 12:10:38;;;;;;;22.77;8.77;;;;;;;18.58;54.15;96839.50;5005436;28;20214;-71